Jacksonville NAS, Florida
Current Conditions -  °F | °C
As of 5:53 AM on Monday 20 Oct 2014 (Local Time) from KNIP Reporting Station
Scattered Clouds Scattered Clouds  
Wind Chill: 69°   Ceiling: Unl
Heat Index: 69°   Visibility: 10mi
Dew Point: 61°   Wind: 6mph
Humidity: 75%   Direction: 340°NNW
Pressure: 30.05"   Gusts: NA
Location:  30.23°N, 81.68°W
Report Text: KNIP 200953Z 34005KT 10SM SCT042 21/16 A3005 RMK AO2 SLP172 T02060161
Loading
Personal Weather Stations






























Interactive Weather Map
Tropical Storm Tracking
New forecast layout! Learn more

10-Day Weather Forecast

Advertisements
Track Severe Weather on mobile